sensor_id;sensor_type;location;lat;lon;timestamp;temperature;humidity
46458;DHT22;32155;54.076;12.092;2023-07-31T00:01:15;14.10;99.90
46458;DHT22;32155;54.076;12.092;2023-07-31T00:03:50;14.10;99.90
46458;DHT22;32155;54.076;12.092;2023-07-31T00:06:15;14.10;99.90
46458;DHT22;32155;54.076;12.092;2023-07-31T00:08:41;14.10;99.90
46458;DHT22;32155;54.076;12.092;2023-07-31T00:11:07;14.00;99.90
46458;DHT22;32155;54.076;12.092;2023-07-31T00:13:36;14.00;99.90
46458;DHT22;32155;54.076;12.092;2023-07-31T00:16:01;13.90;99.90
46458;DHT22;32155;54.076;12.092;2023-07-31T00:18:27;14.00;99.90
46458;DHT22;32155;54.076;12.092;2023-07-31T00:20:53;14.00;99.90
46458;DHT22;32155;54.076;12.092;2023-07-31T00:23:19;13.90;99.90
46458;DHT22;32155;54.076;12.092;2023-07-31T00:25:44;13.80;99.90
46458;DHT22;32155;54.076;12.092;2023-07-31T00:28:13;13.80;99.90
46458;DHT22;32155;54.076;12.092;2023-07-31T00:33:10;13.70;99.90
46458;DHT22;32155;54.076;12.092;2023-07-31T00:55:47;13.70;99.90
46458;DHT22;32155;54.076;12.092;2023-07-31T00:58:13;13.70;99.90
46458;DHT22;32155;54.076;12.092;2023-07-31T01:00:41;13.70;99.90
46458;DHT22;32155;54.076;12.092;2023-07-31T01:03:06;13.80;99.90
46458;DHT22;32155;54.076;12.092;2023-07-31T01:11:33;13.70;99.90
46458;DHT22;32155;54.076;12.092;2023-07-31T01:14:00;13.70;99.90
46458;DHT22;32155;54.076;12.092;2023-07-31T01:16:29;13.70;99.90
46458;DHT22;32155;54.076;12.092;2023-07-31T01:18:54;13.70;99.90
46458;DHT22;32155;54.076;12.092;2023-07-31T01:42:23;13.50;99.90
46458;DHT22;32155;54.076;12.092;2023-07-31T01:44:48;13.50;99.90
46458;DHT22;32155;54.076;12.092;2023-07-31T01:50:06;13.40;99.90
46458;DHT22;32155;54.076;12.092;2023-07-31T01:52:32;13.40;99.90
46458;DHT22;32155;54.076;12.092;2023-07-31T01:54:59;13.40;99.90
46458;DHT22;32155;54.076;12.092;2023-07-31T01:57:25;13.40;99.90
46458;DHT22;32155;54.076;12.092;2023-07-31T01:59:51;13.40;99.90
46458;DHT22;32155;54.076;12.092;2023-07-31T02:02:18;13.40;99.90
46458;DHT22;32155;54.076;12.092;2023-07-31T02:04:44;13.50;99.90
46458;DHT22;32155;54.076;12.092;2023-07-31T02:07:10;13.40;99.90
46458;DHT22;32155;54.076;12.092;2023-07-31T02:09:36;13.40;99.90
46458;DHT22;32155;54.076;12.092;2023-07-31T02:12:01;13.40;99.90
46458;DHT22;32155;54.076;12.092;2023-07-31T02:27:40;13.40;99.90
46458;DHT22;32155;54.076;12.092;2023-07-31T02:30:05;13.40;99.90
46458;DHT22;32155;54.076;12.092;2023-07-31T02:32:31;13.40;99.90
46458;DHT22;32155;54.076;12.092;2023-07-31T02:34:56;13.40;99.90
46458;DHT22;32155;54.076;12.092;2023-07-31T02:37:22;13.40;99.90
46458;DHT22;32155;54.076;12.092;2023-07-31T02:39:48;13.50;99.90
46458;DHT22;32155;54.076;12.092;2023-07-31T02:42:22;13.60;99.90
46458;DHT22;32155;54.076;12.092;2023-07-31T02:44:48;13.70;99.90
46458;DHT22;32155;54.076;12.092;2023-07-31T02:47:14;13.90;99.90
46458;DHT22;32155;54.076;12.092;2023-07-31T02:49:40;13.90;99.90
46458;DHT22;32155;54.076;12.092;2023-07-31T02:52:05;13.80;99.90
46458;DHT22;32155;54.076;12.092;2023-07-31T02:54:31;13.90;99.90
46458;DHT22;32155;54.076;12.092;2023-07-31T02:57:00;13.90;99.90
46458;DHT22;32155;54.076;12.092;2023-07-31T02:59:39;13.90;99.90
46458;DHT22;32155;54.076;12.092;2023-07-31T03:02:10;13.90;99.90
46458;DHT22;32155;54.076;12.092;2023-07-31T03:04:57;14.00;99.90
46458;DHT22;32155;54.076;12.092;2023-07-31T03:07:51;13.90;99.90
46458;DHT22;32155;54.076;12.092;2023-07-31T03:10:26;13.90;99.90
46458;DHT22;32155;54.076;12.092;2023-07-31T03:13:06;13.90;99.90
46458;DHT22;32155;54.076;12.092;2023-07-31T03:15:50;13.90;99.90
46458;DHT22;32155;54.076;12.092;2023-07-31T03:19:00;13.90;99.90
46458;DHT22;32155;54.076;12.092;2023-07-31T03:21:26;13.90;99.90
46458;DHT22;32155;54.076;12.092;2023-07-31T03:23:52;13.90;99.90
46458;DHT22;32155;54.076;12.092;2023-07-31T03:26:17;13.90;99.90
46458;DHT22;32155;54.076;12.092;2023-07-31T03:28:43;13.90;99.90
46458;DHT22;32155;54.076;12.092;2023-07-31T03:31:08;14.00;99.90
46458;DHT22;32155;54.076;12.092;2023-07-31T03:33:34;14.00;99.90
46458;DHT22;32155;54.076;12.092;2023-07-31T03:36:06;13.90;99.90
46458;DHT22;32155;54.076;12.092;2023-07-31T03:38:33;13.90;99.90
46458;DHT22;32155;54.076;12.092;2023-07-31T03:40:59;14.00;99.90
46458;DHT22;32155;54.076;12.092;2023-07-31T03:43:24;14.00;99.90
46458;DHT22;32155;54.076;12.092;2023-07-31T03:45:50;14.10;99.90
46458;DHT22;32155;54.076;12.092;2023-07-31T03:48:15;14.10;99.90
46458;DHT22;32155;54.076;12.092;2023-07-31T03:50:41;14.10;99.90
46458;DHT22;32155;54.076;12.092;2023-07-31T03:53:07;14.10;99.90
46458;DHT22;32155;54.076;12.092;2023-07-31T03:55:32;14.10;99.90
46458;DHT22;32155;54.076;12.092;2023-07-31T03:58:00;14.20;99.90
46458;DHT22;32155;54.076;12.092;2023-07-31T04:00:26;14.20;99.90
46458;DHT22;32155;54.076;12.092;2023-07-31T04:02:56;14.20;99.90
46458;DHT22;32155;54.076;12.092;2023-07-31T04:05:22;14.30;99.90
46458;DHT22;32155;54.076;12.092;2023-07-31T04:07:47;14.40;99.90
46458;DHT22;32155;54.076;12.092;2023-07-31T04:10:15;14.40;99.90
46458;DHT22;32155;54.076;12.092;2023-07-31T04:12:59;14.50;99.90
46458;DHT22;32155;54.076;12.092;2023-07-31T04:15:55;14.60;99.90
46458;DHT22;32155;54.076;12.092;2023-07-31T04:27:40;14.60;99.90
46458;DHT22;32155;54.076;12.092;2023-07-31T04:33:26;14.70;99.90
46458;DHT22;32155;54.076;12.092;2023-07-31T04:35:52;14.80;99.90
46458;DHT22;32155;54.076;12.092;2023-07-31T04:38:21;14.90;99.90
46458;DHT22;32155;54.076;12.092;2023-07-31T04:44:18;15.00;99.90
46458;DHT22;32155;54.076;12.092;2023-07-31T04:47:00;15.00;99.90
46458;DHT22;32155;54.076;12.092;2023-07-31T04:57:20;15.00;99.90
46458;DHT22;32155;54.076;12.092;2023-07-31T04:59:45;15.00;99.90
46458;DHT22;32155;54.076;12.092;2023-07-31T05:02:11;15.00;99.90
46458;DHT22;32155;54.076;12.092;2023-07-31T05:04:40;15.10;99.90
46458;DHT22;32155;54.076;12.092;2023-07-31T05:07:05;15.10;99.90
46458;DHT22;32155;54.076;12.092;2023-07-31T05:09:31;15.20;99.90
46458;DHT22;32155;54.076;12.092;2023-07-31T05:11:56;15.30;99.90
46458;DHT22;32155;54.076;12.092;2023-07-31T05:14:22;15.30;99.90
46458;DHT22;32155;54.076;12.092;2023-07-31T05:16:47;15.40;99.90
46458;DHT22;32155;54.076;12.092;2023-07-31T05:19:13;15.50;99.90
46458;DHT22;32155;54.076;12.092;2023-07-31T05:24:51;15.60;99.90
46458;DHT22;32155;54.076;12.092;2023-07-31T05:27:19;15.80;99.90
46458;DHT22;32155;54.076;12.092;2023-07-31T05:29:44;15.90;99.90
46458;DHT22;32155;54.076;12.092;2023-07-31T05:32:18;16.10;99.90
46458;DHT22;32155;54.076;12.092;2023-07-31T05:35:07;16.20;99.90
46458;DHT22;32155;54.076;12.092;2023-07-31T05:37:36;16.20;99.90
46458;DHT22;32155;54.076;12.092;2023-07-31T05:40:01;16.20;99.90
46458;DHT22;32155;54.076;12.092;2023-07-31T05:42:27;16.20;99.90
46458;DHT22;32155;54.076;12.092;2023-07-31T05:44:53;16.20;99.90
46458;DHT22;32155;54.076;12.092;2023-07-31T05:47:18;16.30;99.90
46458;DHT22;32155;54.076;12.092;2023-07-31T05:49:44;16.30;99.90
46458;DHT22;32155;54.076;12.092;2023-07-31T05:52:09;16.40;99.90
46458;DHT22;32155;54.076;12.092;2023-07-31T05:54:35;16.50;99.90
46458;DHT22;32155;54.076;12.092;2023-07-31T05:57:03;16.40;99.90
46458;DHT22;32155;54.076;12.092;2023-07-31T05:59:43;16.50;99.90
46458;DHT22;32155;54.076;12.092;2023-07-31T06:02:11;16.60;99.90
46458;DHT22;32155;54.076;12.092;2023-07-31T06:04:37;16.60;99.90
46458;DHT22;32155;54.076;12.092;2023-07-31T06:07:03;16.70;99.90
46458;DHT22;32155;54.076;12.092;2023-07-31T06:09:28;16.90;99.90
46458;DHT22;32155;54.076;12.092;2023-07-31T06:11:54;17.00;99.90
46458;DHT22;32155;54.076;12.092;2023-07-31T06:14:19;17.10;99.90
46458;DHT22;32155;54.076;12.092;2023-07-31T06:16:47;17.00;99.90
46458;DHT22;32155;54.076;12.092;2023-07-31T06:19:13;16.70;99.90
46458;DHT22;32155;54.076;12.092;2023-07-31T06:21:41;16.60;99.90
46458;DHT22;32155;54.076;12.092;2023-07-31T06:24:08;16.80;99.90
46458;DHT22;32155;54.076;12.092;2023-07-31T06:26:36;17.00;99.90
46458;DHT22;32155;54.076;12.092;2023-07-31T06:29:02;17.00;99.90
46458;DHT22;32155;54.076;12.092;2023-07-31T06:31:27;17.10;99.90
46458;DHT22;32155;54.076;12.092;2023-07-31T06:33:53;17.10;99.90
46458;DHT22;32155;54.076;12.092;2023-07-31T06:36:21;16.90;99.90
46458;DHT22;32155;54.076;12.092;2023-07-31T06:38:47;16.80;99.90
46458;DHT22;32155;54.076;12.092;2023-07-31T06:41:13;16.70;99.90
46458;DHT22;32155;54.076;12.092;2023-07-31T06:43:38;16.70;99.90
46458;DHT22;32155;54.076;12.092;2023-07-31T06:46:05;16.70;99.90
46458;DHT22;32155;54.076;12.092;2023-07-31T06:48:31;16.60;99.90
46458;DHT22;32155;54.076;12.092;2023-07-31T06:50:56;16.60;99.90
46458;DHT22;32155;54.076;12.092;2023-07-31T06:53:22;16.60;99.90
46458;DHT22;32155;54.076;12.092;2023-07-31T06:55:47;16.70;99.90
46458;DHT22;32155;54.076;12.092;2023-07-31T06:58:13;16.70;99.90
46458;DHT22;32155;54.076;12.092;2023-07-31T07:00:39;16.80;99.90
46458;DHT22;32155;54.076;12.092;2023-07-31T07:03:07;17.00;99.90
46458;DHT22;32155;54.076;12.092;2023-07-31T07:05:32;17.20;99.90
46458;DHT22;32155;54.076;12.092;2023-07-31T07:07:58;17.90;99.90
46458;DHT22;32155;54.076;12.092;2023-07-31T07:10:24;18.40;99.90
46458;DHT22;32155;54.076;12.092;2023-07-31T07:12:52;19.30;99.90
46458;DHT22;32155;54.076;12.092;2023-07-31T07:15:18;19.30;99.90
46458;DHT22;32155;54.076;12.092;2023-07-31T07:17:43;19.50;99.90
46458;DHT22;32155;54.076;12.092;2023-07-31T07:20:09;19.30;99.90
46458;DHT22;32155;54.076;12.092;2023-07-31T07:22:40;18.90;99.90
46458;DHT22;32155;54.076;12.092;2023-07-31T07:25:08;18.50;99.90
46458;DHT22;32155;54.076;12.092;2023-07-31T08:04:17;18.50;99.90
46458;DHT22;32155;54.076;12.092;2023-07-31T08:06:42;18.50;99.90
46458;DHT22;32155;54.076;12.092;2023-07-31T08:09:08;18.70;99.90
46458;DHT22;32155;54.076;12.092;2023-07-31T08:11:34;18.60;99.90
46458;DHT22;32155;54.076;12.092;2023-07-31T08:14:02;18.60;99.90
46458;DHT22;32155;54.076;12.092;2023-07-31T08:16:28;18.80;99.90
46458;DHT22;32155;54.076;12.092;2023-07-31T08:18:53;18.90;99.90
46458;DHT22;32155;54.076;12.092;2023-07-31T08:21:19;19.00;99.90
46458;DHT22;32155;54.076;12.092;2023-07-31T08:23:47;19.40;99.90
46458;DHT22;32155;54.076;12.092;2023-07-31T08:26:16;19.30;99.90
46458;DHT22;32155;54.076;12.092;2023-07-31T08:28:41;19.50;99.90
46458;DHT22;32155;54.076;12.092;2023-07-31T08:31:09;20.00;99.90
46458;DHT22;32155;54.076;12.092;2023-07-31T08:33:36;20.10;99.90
46458;DHT22;32155;54.076;12.092;2023-07-31T08:36:02;20.30;99.90
46458;DHT22;32155;54.076;12.092;2023-07-31T08:38:30;20.70;99.90
46458;DHT22;32155;54.076;12.092;2023-07-31T08:40:56;21.10;99.90
46458;DHT22;32155;54.076;12.092;2023-07-31T08:43:22;21.40;99.90
46458;DHT22;32155;54.076;12.092;2023-07-31T08:45:54;21.40;99.90
46458;DHT22;32155;54.076;12.092;2023-07-31T08:48:21;21.70;99.90
46458;DHT22;32155;54.076;12.092;2023-07-31T08:50:47;21.20;99.90
46458;DHT22;32155;54.076;12.092;2023-07-31T08:53:12;20.50;99.90
46458;DHT22;32155;54.076;12.092;2023-07-31T08:55:38;20.10;99.90
46458;DHT22;32155;54.076;12.092;2023-07-31T08:58:04;19.90;99.90
46458;DHT22;32155;54.076;12.092;2023-07-31T09:00:30;19.90;99.90
46458;DHT22;32155;54.076;12.092;2023-07-31T09:05:29;19.90;99.90
46458;DHT22;32155;54.076;12.092;2023-07-31T09:07:54;19.80;99.90
46458;DHT22;32155;54.076;12.092;2023-07-31T09:10:23;19.60;99.90
46458;DHT22;32155;54.076;12.092;2023-07-31T09:12:49;19.40;99.90
46458;DHT22;32155;54.076;12.092;2023-07-31T09:15:16;19.30;99.90
46458;DHT22;32155;54.076;12.092;2023-07-31T09:17:41;19.40;99.90
46458;DHT22;32155;54.076;12.092;2023-07-31T09:20:17;19.50;99.90
46458;DHT22;32155;54.076;12.092;2023-07-31T09:28:06;19.30;99.90
46458;DHT22;32155;54.076;12.092;2023-07-31T09:30:43;19.90;99.90
46458;DHT22;32155;54.076;12.092;2023-07-31T09:33:09;20.20;99.90
46458;DHT22;32155;54.076;12.092;2023-07-31T09:35:35;20.40;99.90
46458;DHT22;32155;54.076;12.092;2023-07-31T09:40:38;21.00;99.90
46458;DHT22;32155;54.076;12.092;2023-07-31T09:43:04;20.90;99.90
46458;DHT22;32155;54.076;12.092;2023-07-31T09:45:38;20.60;99.90
46458;DHT22;32155;54.076;12.092;2023-07-31T09:48:07;20.20;99.90
46458;DHT22;32155;54.076;12.092;2023-07-31T09:50:34;20.10;99.90
46458;DHT22;32155;54.076;12.092;2023-07-31T09:53:01;20.20;99.90
46458;DHT22;32155;54.076;12.092;2023-07-31T09:55:29;20.30;99.90
46458;DHT22;32155;54.076;12.092;2023-07-31T09:57:55;20.50;99.90
46458;DHT22;32155;54.076;12.092;2023-07-31T10:00:22;20.40;99.90
46458;DHT22;32155;54.076;12.092;2023-07-31T10:02:50;20.50;99.90
46458;DHT22;32155;54.076;12.092;2023-07-31T10:05:16;20.80;99.90
46458;DHT22;32155;54.076;12.092;2023-07-31T10:08:06;21.00;99.90
46458;DHT22;32155;54.076;12.092;2023-07-31T10:10:32;21.70;99.90
46458;DHT22;32155;54.076;12.092;2023-07-31T10:13:01;22.00;99.90
46458;DHT22;32155;54.076;12.092;2023-07-31T10:15:27;21.70;99.90
46458;DHT22;32155;54.076;12.092;2023-07-31T10:17:52;21.70;99.90
46458;DHT22;32155;54.076;12.092;2023-07-31T10:20:21;21.20;99.90
46458;DHT22;32155;54.076;12.092;2023-07-31T10:22:50;21.10;99.90
46458;DHT22;32155;54.076;12.092;2023-07-31T10:25:16;20.60;99.90
46458;DHT22;32155;54.076;12.092;2023-07-31T10:27:43;20.30;99.90
46458;DHT22;32155;54.076;12.092;2023-07-31T10:30:12;20.10;99.90
46458;DHT22;32155;54.076;12.092;2023-07-31T10:32:40;19.90;99.90
46458;DHT22;32155;54.076;12.092;2023-07-31T10:35:07;20.10;99.90
46458;DHT22;32155;54.076;12.092;2023-07-31T10:37:42;20.20;99.90
46458;DHT22;32155;54.076;12.092;2023-07-31T10:40:12;20.20;99.90
46458;DHT22;32155;54.076;12.092;2023-07-31T10:42:50;20.50;99.90
46458;DHT22;32155;54.076;12.092;2023-07-31T10:48:02;20.50;99.90
46458;DHT22;32155;54.076;12.092;2023-07-31T10:50:30;20.30;99.90
46458;DHT22;32155;54.076;12.092;2023-07-31T10:52:58;20.20;99.90
46458;DHT22;32155;54.076;12.092;2023-07-31T10:58:04;20.40;99.90
46458;DHT22;32155;54.076;12.092;2023-07-31T11:00:33;20.40;99.90
46458;DHT22;32155;54.076;12.092;2023-07-31T11:03:06;20.40;99.90
46458;DHT22;32155;54.076;12.092;2023-07-31T11:08:26;20.10;99.90
46458;DHT22;32155;54.076;12.092;2023-07-31T11:11:13;20.20;99.90
46458;DHT22;32155;54.076;12.092;2023-07-31T11:13:50;20.00;99.90
46458;DHT22;32155;54.076;12.092;2023-07-31T11:16:16;19.90;99.90
46458;DHT22;32155;54.076;12.092;2023-07-31T11:18:45;19.60;99.90
46458;DHT22;32155;54.076;12.092;2023-07-31T11:21:14;19.60;99.90
46458;DHT22;32155;54.076;12.092;2023-07-31T11:23:40;19.60;99.90
46458;DHT22;32155;54.076;12.092;2023-07-31T11:26:06;19.80;99.90
46458;DHT22;32155;54.076;12.092;2023-07-31T11:28:32;20.00;99.90
46458;DHT22;32155;54.076;12.092;2023-07-31T11:30:59;20.60;99.90
46458;DHT22;32155;54.076;12.092;2023-07-31T11:33:27;20.70;99.90
46458;DHT22;32155;54.076;12.092;2023-07-31T11:35:52;20.50;99.90
46458;DHT22;32155;54.076;12.092;2023-07-31T11:38:22;19.90;99.90
46458;DHT22;32155;54.076;12.092;2023-07-31T11:40:52;19.50;99.90
46458;DHT22;32155;54.076;12.092;2023-07-31T11:43:19;19.30;99.90
46458;DHT22;32155;54.076;12.092;2023-07-31T11:45:49;19.10;99.90
46458;DHT22;32155;54.076;12.092;2023-07-31T11:48:18;19.00;99.90
46458;DHT22;32155;54.076;12.092;2023-07-31T11:50:48;18.70;99.90
46458;DHT22;32155;54.076;12.092;2023-07-31T11:53:14;18.50;99.90
46458;DHT22;32155;54.076;12.092;2023-07-31T11:55:41;18.30;99.90
46458;DHT22;32155;54.076;12.092;2023-07-31T11:58:06;18.20;99.90
46458;DHT22;32155;54.076;12.092;2023-07-31T12:00:32;18.00;99.90
46458;DHT22;32155;54.076;12.092;2023-07-31T12:02:58;17.80;99.90
46458;DHT22;32155;54.076;12.092;2023-07-31T12:05:25;17.70;99.90
46458;DHT22;32155;54.076;12.092;2023-07-31T12:07:54;17.50;99.90
46458;DHT22;32155;54.076;12.092;2023-07-31T12:10:26;17.40;99.90
46458;DHT22;32155;54.076;12.092;2023-07-31T12:12:56;17.50;99.90
46458;DHT22;32155;54.076;12.092;2023-07-31T12:15:22;17.70;99.90
46458;DHT22;32155;54.076;12.092;2023-07-31T12:17:47;17.60;99.90
46458;DHT22;32155;54.076;12.092;2023-07-31T12:20:13;17.50;99.90
46458;DHT22;32155;54.076;12.092;2023-07-31T12:22:41;17.50;99.90
46458;DHT22;32155;54.076;12.092;2023-07-31T12:25:07;17.20;99.90
46458;DHT22;32155;54.076;12.092;2023-07-31T12:27:33;17.20;99.90
46458;DHT22;32155;54.076;12.092;2023-07-31T12:29:59;17.10;99.90
46458;DHT22;32155;54.076;12.092;2023-07-31T12:32:25;17.20;99.90
46458;DHT22;32155;54.076;12.092;2023-07-31T12:34:51;17.50;99.90
46458;DHT22;32155;54.076;12.092;2023-07-31T12:37:20;17.50;99.90
46458;DHT22;32155;54.076;12.092;2023-07-31T12:39:45;17.40;99.90
46458;DHT22;32155;54.076;12.092;2023-07-31T12:42:11;17.10;99.90
46458;DHT22;32155;54.076;12.092;2023-07-31T12:44:37;17.10;99.90
46458;DHT22;32155;54.076;12.092;2023-07-31T12:47:02;16.90;99.90
46458;DHT22;32155;54.076;12.092;2023-07-31T12:49:29;16.80;99.90
46458;DHT22;32155;54.076;12.092;2023-07-31T12:51:54;16.80;99.90
46458;DHT22;32155;54.076;12.092;2023-07-31T12:54:20;16.90;99.90
46458;DHT22;32155;54.076;12.092;2023-07-31T12:56:45;17.10;99.90
46458;DHT22;32155;54.076;12.092;2023-07-31T12:59:11;17.40;99.90
46458;DHT22;32155;54.076;12.092;2023-07-31T13:01:39;17.50;99.90
46458;DHT22;32155;54.076;12.092;2023-07-31T13:04:05;17.50;99.90
46458;DHT22;32155;54.076;12.092;2023-07-31T13:06:30;17.40;99.90
46458;DHT22;32155;54.076;12.092;2023-07-31T13:11:33;17.60;99.90
46458;DHT22;32155;54.076;12.092;2023-07-31T13:13:58;17.60;99.90
46458;DHT22;32155;54.076;12.092;2023-07-31T13:16:26;17.70;99.90
46458;DHT22;32155;54.076;12.092;2023-07-31T13:18:53;18.00;99.90
46458;DHT22;32155;54.076;12.092;2023-07-31T13:21:23;18.30;99.90
46458;DHT22;32155;54.076;12.092;2023-07-31T13:23:49;18.50;99.90
46458;DHT22;32155;54.076;12.092;2023-07-31T13:26:17;18.30;99.90
46458;DHT22;32155;54.076;12.092;2023-07-31T13:28:42;18.30;99.90
46458;DHT22;32155;54.076;12.092;2023-07-31T13:31:08;18.40;99.90
46458;DHT22;32155;54.076;12.092;2023-07-31T13:33:33;18.50;99.90
46458;DHT22;32155;54.076;12.092;2023-07-31T13:35:59;18.70;99.90
46458;DHT22;32155;54.076;12.092;2023-07-31T13:38:24;18.70;99.90
46458;DHT22;32155;54.076;12.092;2023-07-31T13:40:50;18.80;99.90
46458;DHT22;32155;54.076;12.092;2023-07-31T13:43:20;19.00;99.90
46458;DHT22;32155;54.076;12.092;2023-07-31T13:45:46;19.10;99.90
46458;DHT22;32155;54.076;12.092;2023-07-31T13:48:11;19.00;99.90
46458;DHT22;32155;54.076;12.092;2023-07-31T13:50:37;18.80;99.90
46458;DHT22;32155;54.076;12.092;2023-07-31T13:53:02;19.00;99.90
46458;DHT22;32155;54.076;12.092;2023-07-31T13:55:30;19.10;99.90
46458;DHT22;32155;54.076;12.092;2023-07-31T13:57:55;19.10;99.90
46458;DHT22;32155;54.076;12.092;2023-07-31T14:00:21;19.00;99.90
46458;DHT22;32155;54.076;12.092;2023-07-31T14:02:47;19.20;99.90
46458;DHT22;32155;54.076;12.092;2023-07-31T14:05:12;19.60;99.90
46458;DHT22;32155;54.076;12.092;2023-07-31T14:07:38;19.60;99.90
46458;DHT22;32155;54.076;12.092;2023-07-31T14:10:04;19.90;99.90
46458;DHT22;32155;54.076;12.092;2023-07-31T14:12:30;20.30;99.90
46458;DHT22;32155;54.076;12.092;2023-07-31T14:14:56;20.50;99.90
46458;DHT22;32155;54.076;12.092;2023-07-31T14:17:24;20.40;99.90
46458;DHT22;32155;54.076;12.092;2023-07-31T14:19:49;20.20;99.90
46458;DHT22;32155;54.076;12.092;2023-07-31T14:22:15;20.20;99.90
46458;DHT22;32155;54.076;12.092;2023-07-31T14:24:52;20.10;99.90
46458;DHT22;32155;54.076;12.092;2023-07-31T14:27:17;20.10;99.90
46458;DHT22;32155;54.076;12.092;2023-07-31T14:29:43;20.20;99.90
46458;DHT22;32155;54.076;12.092;2023-07-31T14:32:08;20.20;99.90
46458;DHT22;32155;54.076;12.092;2023-07-31T14:34:34;20.30;99.90
46458;DHT22;32155;54.076;12.092;2023-07-31T14:36:59;20.30;99.90
46458;DHT22;32155;54.076;12.092;2023-07-31T14:39:25;20.00;99.90
46458;DHT22;32155;54.076;12.092;2023-07-31T14:58:42;20.10;99.90
46458;DHT22;32155;54.076;12.092;2023-07-31T15:01:10;19.80;99.90
46458;DHT22;32155;54.076;12.092;2023-07-31T15:03:36;19.60;99.90
46458;DHT22;32155;54.076;12.092;2023-07-31T15:06:03;19.50;99.90
46458;DHT22;32155;54.076;12.092;2023-07-31T15:08:31;19.30;99.90
46458;DHT22;32155;54.076;12.092;2023-07-31T15:10:57;19.00;99.90
46458;DHT22;32155;54.076;12.092;2023-07-31T15:13:23;18.90;99.90
46458;DHT22;32155;54.076;12.092;2023-07-31T15:15:48;18.90;99.90
46458;DHT22;32155;54.076;12.092;2023-07-31T15:18:14;18.80;99.90
46458;DHT22;32155;54.076;12.092;2023-07-31T15:20:58;18.70;99.90
46458;DHT22;32155;54.076;12.092;2023-07-31T15:23:29;18.60;99.90
46458;DHT22;32155;54.076;12.092;2023-07-31T15:25:55;18.70;99.90
46458;DHT22;32155;54.076;12.092;2023-07-31T15:28:20;19.10;99.90
46458;DHT22;32155;54.076;12.092;2023-07-31T15:30:46;19.20;99.90
46458;DHT22;32155;54.076;12.092;2023-07-31T15:33:11;19.10;99.90
46458;DHT22;32155;54.076;12.092;2023-07-31T15:35:37;19.00;99.90
46458;DHT22;32155;54.076;12.092;2023-07-31T15:38:02;19.00;99.90
46458;DHT22;32155;54.076;12.092;2023-07-31T15:40:28;19.10;99.90
46458;DHT22;32155;54.076;12.092;2023-07-31T15:42:53;19.00;99.90
46458;DHT22;32155;54.076;12.092;2023-07-31T15:45:19;18.90;99.90
46458;DHT22;32155;54.076;12.092;2023-07-31T15:47:45;19.00;99.90
46458;DHT22;32155;54.076;12.092;2023-07-31T15:50:10;19.10;99.90
46458;DHT22;32155;54.076;12.092;2023-07-31T15:52:36;19.00;99.90
46458;DHT22;32155;54.076;12.092;2023-07-31T16:16:26;17.60;99.90
46458;DHT22;32155;54.076;12.092;2023-07-31T16:19:15;17.30;99.90
46458;DHT22;32155;54.076;12.092;2023-07-31T16:21:56;17.10;99.90
46458;DHT22;32155;54.076;12.092;2023-07-31T16:24:22;17.20;99.90
46458;DHT22;32155;54.076;12.092;2023-07-31T16:26:48;17.00;99.90
46458;DHT22;32155;54.076;12.092;2023-07-31T16:29:13;16.90;99.90
46458;DHT22;32155;54.076;12.092;2023-07-31T16:31:41;16.80;99.90
46458;DHT22;32155;54.076;12.092;2023-07-31T16:34:07;16.70;99.90
46458;DHT22;32155;54.076;12.092;2023-07-31T16:36:34;16.70;99.90
46458;DHT22;32155;54.076;12.092;2023-07-31T16:38:59;16.70;99.90
46458;DHT22;32155;54.076;12.092;2023-07-31T16:41:25;16.70;99.90
46458;DHT22;32155;54.076;12.092;2023-07-31T16:43:53;16.70;99.90
46458;DHT22;32155;54.076;12.092;2023-07-31T16:46:21;16.70;99.90
46458;DHT22;32155;54.076;12.092;2023-07-31T16:48:49;16.60;99.90
46458;DHT22;32155;54.076;12.092;2023-07-31T16:51:14;16.60;99.90
46458;DHT22;32155;54.076;12.092;2023-07-31T16:53:42;16.50;99.90
46458;DHT22;32155;54.076;12.092;2023-07-31T16:56:09;16.40;99.90
46458;DHT22;32155;54.076;12.092;2023-07-31T17:16:31;16.10;99.90
46458;DHT22;32155;54.076;12.092;2023-07-31T17:19:02;16.10;99.90
46458;DHT22;32155;54.076;12.092;2023-07-31T17:21:27;16.10;99.90
46458;DHT22;32155;54.076;12.092;2023-07-31T17:23:55;16.10;99.90
46458;DHT22;32155;54.076;12.092;2023-07-31T17:26:21;16.10;99.90
46458;DHT22;32155;54.076;12.092;2023-07-31T17:28:47;16.10;99.90
46458;DHT22;32155;54.076;12.092;2023-07-31T17:31:12;16.20;99.90
46458;DHT22;32155;54.076;12.092;2023-07-31T17:33:40;16.40;99.90
46458;DHT22;32155;54.076;12.092;2023-07-31T17:36:06;16.30;99.90
46458;DHT22;32155;54.076;12.092;2023-07-31T17:38:31;16.30;99.90
46458;DHT22;32155;54.076;12.092;2023-07-31T17:40:57;16.30;99.90
46458;DHT22;32155;54.076;12.092;2023-07-31T17:43:22;16.20;99.90
46458;DHT22;32155;54.076;12.092;2023-07-31T17:45:49;16.10;99.90
46458;DHT22;32155;54.076;12.092;2023-07-31T17:48:15;15.90;99.90
46458;DHT22;32155;54.076;12.092;2023-07-31T17:50:41;15.70;99.90
46458;DHT22;32155;54.076;12.092;2023-07-31T17:53:08;15.70;99.90
46458;DHT22;32155;54.076;12.092;2023-07-31T17:55:34;15.70;99.90
46458;DHT22;32155;54.076;12.092;2023-07-31T17:58:00;15.60;99.90
46458;DHT22;32155;54.076;12.092;2023-07-31T18:00:25;15.70;99.90
46458;DHT22;32155;54.076;12.092;2023-07-31T18:02:51;15.70;99.90
46458;DHT22;32155;54.076;12.092;2023-07-31T18:05:16;15.80;99.90
46458;DHT22;32155;54.076;12.092;2023-07-31T18:07:42;15.80;99.90
46458;DHT22;32155;54.076;12.092;2023-07-31T18:10:07;15.70;99.90
46458;DHT22;32155;54.076;12.092;2023-07-31T18:12:36;15.80;99.90
46458;DHT22;32155;54.076;12.092;2023-07-31T18:15:02;15.80;99.90
46458;DHT22;32155;54.076;12.092;2023-07-31T18:17:29;15.80;99.90
46458;DHT22;32155;54.076;12.092;2023-07-31T18:19:54;15.70;99.90
46458;DHT22;32155;54.076;12.092;2023-07-31T18:22:20;15.70;99.90
46458;DHT22;32155;54.076;12.092;2023-07-31T18:24:45;15.80;99.90
46458;DHT22;32155;54.076;12.092;2023-07-31T18:27:11;15.80;99.90
46458;DHT22;32155;54.076;12.092;2023-07-31T18:29:39;15.80;99.90
46458;DHT22;32155;54.076;12.092;2023-07-31T18:32:05;15.80;99.90
46458;DHT22;32155;54.076;12.092;2023-07-31T18:34:31;15.90;99.90
46458;DHT22;32155;54.076;12.092;2023-07-31T18:36:58;15.90;99.90
46458;DHT22;32155;54.076;12.092;2023-07-31T18:39:23;15.90;99.90
46458;DHT22;32155;54.076;12.092;2023-07-31T18:41:49;15.90;99.90
46458;DHT22;32155;54.076;12.092;2023-07-31T18:44:19;15.90;99.90